sensor_id;sensor_type;location;lat;lon;timestamp;pressure;altitude;pressure_sealevel;temperature;humidity
21111;BME280;10713;51.912;4.494;2024-02-14T00:00:10;101295.94;;;9.00;100.00
21111;BME280;10713;51.912;4.494;2024-02-14T00:02:45;101269.84;;;8.93;100.00
21111;BME280;10713;51.912;4.494;2024-02-14T00:05:14;101289.84;;;8.98;100.00
21111;BME280;10713;51.912;4.494;2024-02-14T00:07:40;101281.91;;;9.00;100.00
21111;BME280;10713;51.912;4.494;2024-02-14T00:10:06;101280.19;;;8.99;100.00
21111;BME280;10713;51.912;4.494;2024-02-14T00:12:33;101281.94;;;8.98;100.00
21111;BME280;10713;51.912;4.494;2024-02-14T00:14:58;101275.88;;;8.96;100.00
21111;BME280;10713;51.912;4.494;2024-02-14T00:17:24;101277.56;;;8.99;100.00
21111;BME280;10713;51.912;4.494;2024-02-14T00:19:50;101292.44;;;9.01;100.00
21111;BME280;10713;51.912;4.494;2024-02-14T00:22:15;101292.38;;;9.03;100.00
21111;BME280;10713;51.912;4.494;2024-02-14T00:24:41;101268.44;;;9.12;100.00
21111;BME280;10713;51.912;4.494;2024-02-14T00:27:07;101260.53;;;9.12;100.00
21111;BME280;10713;51.912;4.494;2024-02-14T00:29:32;101268.47;;;9.11;100.00
21111;BME280;10713;51.912;4.494;2024-02-14T00:32:00;101262.22;;;9.15;100.00
21111;BME280;10713;51.912;4.494;2024-02-14T00:34:25;101284.13;;;9.17;100.00
21111;BME280;10713;51.912;4.494;2024-02-14T00:36:51;101281.41;;;9.20;100.00
21111;BME280;10713;51.912;4.494;2024-02-14T00:39:16;101278.75;;;9.20;100.00
21111;BME280;10713;51.912;4.494;2024-02-14T00:41:42;101284.88;;;9.22;100.00
21111;BME280;10713;51.912;4.494;2024-02-14T00:44:07;101272.56;;;9.22;100.00
21111;BME280;10713;51.912;4.494;2024-02-14T00:46:32;101273.34;;;9.26;100.00
21111;BME280;10713;51.912;4.494;2024-02-14T00:48:58;101273.25;;;9.29;100.00
21111;BME280;10713;51.912;4.494;2024-02-14T00:51:24;101275.94;;;9.28;100.00
21111;BME280;10713;51.912;4.494;2024-02-14T00:53:51;101275.78;;;9.32;100.00
21111;BME280;10713;51.912;4.494;2024-02-14T00:56:17;101299.56;;;9.31;100.00
21111;BME280;10713;51.912;4.494;2024-02-14T00:58:43;101297.72;;;9.33;100.00
21111;BME280;10713;51.912;4.494;2024-02-14T01:01:08;101289.81;;;9.34;100.00
21111;BME280;10713;51.912;4.494;2024-02-14T01:03:33;101294.16;;;9.35;100.00
21111;BME280;10713;51.912;4.494;2024-02-14T01:05:59;101298.53;;;9.36;100.00
21111;BME280;10713;51.912;4.494;2024-02-14T01:08:24;101293.22;;;9.38;100.00
21111;BME280;10713;51.912;4.494;2024-02-14T01:10:50;101299.28;;;9.41;100.00
21111;BME280;10713;51.912;4.494;2024-02-14T01:13:17;101290.38;;;9.45;100.00
21111;BME280;10713;51.912;4.494;2024-02-14T01:15:43;101290.38;;;9.45;100.00
21111;BME280;10713;51.912;4.494;2024-02-14T01:18:08;101299.97;;;9.48;100.00
21111;BME280;10713;51.912;4.494;2024-02-14T01:20:33;101306.88;;;9.52;100.00
21111;BME280;10713;51.912;4.494;2024-02-14T01:22:59;101292.84;;;9.52;100.00
21111;BME280;10713;51.912;4.494;2024-02-14T01:25:26;101294.53;;;9.54;100.00
21111;BME280;10713;51.912;4.494;2024-02-14T01:27:51;101300.72;;;9.53;100.00
21111;BME280;10713;51.912;4.494;2024-02-14T01:30:18;101303.34;;;9.53;100.00
21111;BME280;10713;51.912;4.494;2024-02-14T01:32:44;101298.03;;;9.55;100.00
21111;BME280;10713;51.912;4.494;2024-02-14T01:35:09;101310.31;;;9.56;100.00
21111;BME280;10713;51.912;4.494;2024-02-14T01:37:35;101300.56;;;9.58;100.00
21111;BME280;10713;51.912;4.494;2024-02-14T01:40:00;101306.69;;;9.58;100.00
21111;BME280;10713;51.912;4.494;2024-02-14T01:42:26;101300.56;;;9.58;100.00
21111;BME280;10713;51.912;4.494;2024-02-14T01:44:53;101311.09;;;9.58;100.00
21111;BME280;10713;51.912;4.494;2024-02-14T01:47:20;101301.44;;;9.58;100.00
21111;BME280;10713;51.912;4.494;2024-02-14T01:49:45;101313.72;;;9.59;100.00
21111;BME280;10713;51.912;4.494;2024-02-14T01:52:12;101309.47;;;9.54;100.00
21111;BME280;10713;51.912;4.494;2024-02-14T01:54:37;101315.53;;;9.57;100.00
21111;BME280;10713;51.912;4.494;2024-02-14T01:57:04;101316.44;;;9.56;100.00
21111;BME280;10713;51.912;4.494;2024-02-14T01:59:30;101309.41;;;9.55;100.00
21111;BME280;10713;51.912;4.494;2024-02-14T02:01:55;101317.28;;;9.57;100.00
21111;BME280;10713;51.912;4.494;2024-02-14T02:04:21;101312.06;;;9.55;100.00
21111;BME280;10713;51.912;4.494;2024-02-14T02:06:47;101312.06;;;9.55;100.00
21111;BME280;10713;51.912;4.494;2024-02-14T02:09:12;101323.50;;;9.56;100.00
21111;BME280;10713;51.912;4.494;2024-02-14T02:11:48;101312.94;;;9.56;100.00
21111;BME280;10713;51.912;4.494;2024-02-14T02:14:14;101311.97;;;9.89;100.00
21111;BME280;10713;51.912;4.494;2024-02-14T02:16:40;101314.75;;;9.85;100.00
21111;BME280;10713;51.912;4.494;2024-02-14T02:19:05;101318.25;;;9.85;100.00
21111;BME280;10713;51.912;4.494;2024-02-14T02:21:34;101313.16;;;9.79;100.00
21111;BME280;10713;51.912;4.494;2024-02-14T02:24:00;101316.66;;;9.80;100.00
21111;BME280;10713;51.912;4.494;2024-02-14T02:26:26;101322.78;;;9.80;100.00
21111;BME280;10713;51.912;4.494;2024-02-14T02:28:51;101326.25;;;9.82;100.00
21111;BME280;10713;51.912;4.494;2024-02-14T02:31:18;101321.84;;;9.83;100.00
21111;BME280;10713;51.912;4.494;2024-02-14T02:33:43;101327.97;;;9.83;100.00
21111;BME280;10713;51.912;4.494;2024-02-14T02:36:08;101329.66;;;9.86;100.00
21111;BME280;10713;51.912;4.494;2024-02-14T02:38:35;101329.63;;;9.87;100.00
21111;BME280;10713;51.912;4.494;2024-02-14T02:41:02;101330.44;;;9.89;100.00
21111;BME280;10713;51.912;4.494;2024-02-14T02:43:28;101335.69;;;9.89;100.00
21111;BME280;10713;51.912;4.494;2024-02-14T02:45:54;101337.38;;;9.92;100.00
21111;BME280;10713;51.912;4.494;2024-02-14T02:48:19;101332.88;;;9.96;100.00
21111;BME280;10713;51.912;4.494;2024-02-14T02:50:48;101340.75;;;9.97;100.00
21111;BME280;10713;51.912;4.494;2024-02-14T02:53:14;101339.09;;;9.95;100.00
21111;BME280;10713;51.912;4.494;2024-02-14T02:55:40;101342.47;;;9.98;100.00
21111;BME280;10713;51.912;4.494;2024-02-14T02:58:06;101340.75;;;9.97;100.00
21111;BME280;10713;51.912;4.494;2024-02-14T03:00:32;101346.81;;;10.01;100.00
21111;BME280;10713;51.912;4.494;2024-02-14T03:02:58;101345.91;;;10.02;100.00
21111;BME280;10713;51.912;4.494;2024-02-14T03:05:23;101341.41;;;10.05;100.00
21111;BME280;10713;51.912;4.494;2024-02-14T03:07:49;101351.97;;;10.05;100.00
21111;BME280;10713;51.912;4.494;2024-02-14T03:10:16;101350.19;;;10.06;100.00
21111;BME280;10713;51.912;4.494;2024-02-14T03:12:47;101353.59;;;10.09;100.00
21111;BME280;10713;51.912;4.494;2024-02-14T03:15:13;101359.78;;;10.08;100.00
21111;BME280;10713;51.912;4.494;2024-02-14T03:17:39;101356.22;;;10.09;100.00
21111;BME280;10713;51.912;4.494;2024-02-14T03:20:06;101363.38;;;10.06;100.00
21111;BME280;10713;51.912;4.494;2024-02-14T03:22:42;101365.06;;;10.08;100.00
21111;BME280;10713;51.912;4.494;2024-02-14T03:25:08;101366.00;;;10.06;100.00
21111;BME280;10713;51.912;4.494;2024-02-14T03:27:34;101365.91;;;10.09;100.00
21111;BME280;10713;51.912;4.494;2024-02-14T03:30:00;101356.28;;;10.08;100.00
21111;BME280;10713;51.912;4.494;2024-02-14T03:32:28;101365.00;;;10.10;100.00
21111;BME280;10713;51.912;4.494;2024-02-14T03:34:53;101369.25;;;10.15;100.00
21111;BME280;10713;51.912;4.494;2024-02-14T03:37:18;101370.13;;;10.16;100.00
21111;BME280;10713;51.912;4.494;2024-02-14T03:39:44;101363.09;;;10.15;100.00
21111;BME280;10713;51.912;4.494;2024-02-14T03:42:10;101371.72;;;10.22;100.00
21111;BME280;10713;51.912;4.494;2024-02-14T03:44:36;101372.59;;;10.22;100.00
21111;BME280;10713;51.912;4.494;2024-02-14T03:47:03;101375.25;;;10.21;100.00
21111;BME280;10713;51.912;4.494;2024-02-14T03:49:29;101368.19;;;10.21;100.00
21111;BME280;10713;51.912;4.494;2024-02-14T03:51:55;101371.72;;;10.22;100.00
21111;BME280;10713;51.912;4.494;2024-02-14T03:54:21;101374.31;;;10.23;100.00
21111;BME280;10713;51.912;4.494;2024-02-14T03:56:46;101379.56;;;10.23;100.00
21111;BME280;10713;51.912;4.494;2024-02-14T03:59:12;101376.00;;;10.26;100.00
21111;BME280;10713;51.912;4.494;2024-02-14T04:01:37;101382.13;;;10.28;100.00
21111;BME280;10713;51.912;4.494;2024-02-14T04:04:04;101385.66;;;10.27;100.00
21111;BME280;10713;51.912;4.494;2024-02-14T04:06:29;101386.53;;;10.27;100.00
21111;BME280;10713;51.912;4.494;2024-02-14T04:08:57;101387.34;;;10.29;100.00
21111;BME280;10713;51.912;4.494;2024-02-14T04:11:22;101393.44;;;10.31;100.00
21111;BME280;10713;51.912;4.494;2024-02-14T04:13:48;101393.47;;;10.30;100.00
21111;BME280;10713;51.912;4.494;2024-02-14T04:16:13;101388.16;;;10.31;100.00
21111;BME280;10713;51.912;4.494;2024-02-14T04:18:39;101394.31;;;10.32;100.00
21111;BME280;10713;51.912;4.494;2024-02-14T04:21:07;101396.91;;;10.33;100.00
21111;BME280;10713;51.912;4.494;2024-02-14T04:23:33;101398.66;;;10.33;100.00
21111;BME280;10713;51.912;4.494;2024-02-14T04:25:58;101394.28;;;10.33;100.00
21111;BME280;10713;51.912;4.494;2024-02-14T04:28:23;101392.50;;;10.34;100.00
21111;BME280;10713;51.912;4.494;2024-02-14T04:30:49;101398.63;;;10.34;100.00
21111;BME280;10713;51.912;4.494;2024-02-14T04:33:14;101400.34;;;10.35;100.00
21111;BME280;10713;51.912;4.494;2024-02-14T04:35:39;101408.31;;;10.34;100.00
21111;BME280;10713;51.912;4.494;2024-02-14T04:38:05;101404.78;;;10.35;100.00
21111;BME280;10713;51.912;4.494;2024-02-14T04:40:30;101405.63;;;10.35;100.00
21111;BME280;10713;51.912;4.494;2024-02-14T04:42:55;101417.09;;;10.34;100.00
21111;BME280;10713;51.912;4.494;2024-02-14T04:45:21;101413.59;;;10.34;100.00
21111;BME280;10713;51.912;4.494;2024-02-14T04:47:46;101411.06;;;10.31;100.00
21111;BME280;10713;51.912;4.494;2024-02-14T04:50:12;101412.84;;;10.30;100.00
21111;BME280;10713;51.912;4.494;2024-02-14T04:52:39;101424.25;;;10.31;100.00
21111;BME280;10713;51.912;4.494;2024-02-14T04:55:04;101424.28;;;10.29;100.00
21111;BME280;10713;51.912;4.494;2024-02-14T04:57:30;101422.56;;;10.28;100.00
21111;BME280;10713;51.912;4.494;2024-02-14T04:59:56;101421.63;;;10.31;100.00
21111;BME280;10713;51.912;4.494;2024-02-14T05:02:21;101423.31;;;10.33;100.00
21111;BME280;10713;51.912;4.494;2024-02-14T05:04:47;101425.06;;;10.33;100.00
21111;BME280;10713;51.912;4.494;2024-02-14T05:07:12;101417.09;;;10.34;100.00
21111;BME280;10713;51.912;4.494;2024-02-14T05:09:38;101423.31;;;10.33;100.00
21111;BME280;10713;51.912;4.494;2024-02-14T05:12:03;101429.38;;;10.35;100.00
21111;BME280;10713;51.912;4.494;2024-02-14T05:14:29;101435.59;;;10.33;100.00
21111;BME280;10713;51.912;4.494;2024-02-14T05:16:57;101436.53;;;10.32;100.00
21111;BME280;10713;51.912;4.494;2024-02-14T05:19:22;101431.16;;;10.35;100.00
21111;BME280;10713;51.912;4.494;2024-02-14T05:21:47;101433.81;;;10.35;100.00
21111;BME280;10713;51.912;4.494;2024-02-14T05:24:13;101440.84;;;10.34;100.00
21111;BME280;10713;51.912;4.494;2024-02-14T05:26:38;101437.16;;;10.42;100.00
21111;BME280;10713;51.912;4.494;2024-02-14T05:29:04;101437.16;;;10.42;100.00
21111;BME280;10713;51.912;4.494;2024-02-14T05:31:46;101431.03;;;10.40;100.00
21111;BME280;10713;51.912;4.494;2024-02-14T05:34:12;101434.50;;;10.42;100.00
21111;BME280;10713;51.912;4.494;2024-02-14T05:36:37;101430.13;;;10.41;100.00
21111;BME280;10713;51.912;4.494;2024-02-14T05:39:03;101444.97;;;10.45;100.00
21111;BME280;10713;51.912;4.494;2024-02-14T05:41:30;101433.59;;;10.43;100.00
21111;BME280;10713;51.912;4.494;2024-02-14T05:43:57;101435.22;;;10.47;100.00
21111;BME280;10713;51.912;4.494;2024-02-14T05:46:23;101436.00;;;10.50;100.00
21111;BME280;10713;51.912;4.494;2024-02-14T05:48:48;101440.41;;;10.50;100.00
21111;BME280;10713;51.912;4.494;2024-02-14T05:51:14;101434.56;;;10.38;100.00
21111;BME280;10713;51.912;4.494;2024-02-14T05:53:39;101431.13;;;10.36;100.00
21111;BME280;10713;51.912;4.494;2024-02-14T05:56:04;101449.59;;;10.36;100.00
21111;BME280;10713;51.912;4.494;2024-02-14T05:58:30;101447.84;;;10.35;100.00
21111;BME280;10713;51.912;4.494;2024-02-14T06:00:55;101450.47;;;10.37;100.00
21111;BME280;10713;51.912;4.494;2024-02-14T06:03:21;101448.66;;;10.39;100.00
21111;BME280;10713;51.912;4.494;2024-02-14T06:05:46;101447.72;;;10.40;100.00
21111;BME280;10713;51.912;4.494;2024-02-14T06:08:12;101458.25;;;10.42;100.00
21111;BME280;10713;51.912;4.494;2024-02-14T06:10:37;101454.72;;;10.41;100.00
21111;BME280;10713;51.912;4.494;2024-02-14T06:13:04;101450.19;;;10.46;100.00
21111;BME280;10713;51.912;4.494;2024-02-14T06:15:29;101455.63;;;10.42;100.00
21111;BME280;10713;51.912;4.494;2024-02-14T06:17:55;101452.91;;;10.43;100.00
21111;BME280;10713;51.912;4.494;2024-02-14T06:20:20;101452.81;;;10.46;100.00
21111;BME280;10713;51.912;4.494;2024-02-14T06:22:45;101460.72;;;10.48;100.00
21111;BME280;10713;51.912;4.494;2024-02-14T06:25:11;101457.22;;;10.47;100.00
21111;BME280;10713;51.912;4.494;2024-02-14T06:27:36;101463.38;;;10.46;100.00
21111;BME280;10713;51.912;4.494;2024-02-14T06:30:03;101456.22;;;10.51;100.00
21111;BME280;10713;51.912;4.494;2024-02-14T06:32:28;101463.22;;;10.52;100.00
21111;BME280;10713;51.912;4.494;2024-02-14T06:34:54;101456.88;;;10.58;100.00
21111;BME280;10713;51.912;4.494;2024-02-14T06:37:19;101459.44;;;10.61;100.00
21111;BME280;10713;51.912;4.494;2024-02-14T06:39:45;101467.41;;;10.59;100.00
21111;BME280;10713;51.912;4.494;2024-02-14T06:42:10;101466.56;;;10.59;100.00
21111;BME280;10713;51.912;4.494;2024-02-14T06:44:36;101467.41;;;10.59;100.00
21111;BME280;10713;51.912;4.494;2024-02-14T06:47:01;101476.19;;;10.60;100.00
21111;BME280;10713;51.912;4.494;2024-02-14T06:49:26;101476.19;;;10.60;100.00
21111;BME280;10713;51.912;4.494;2024-02-14T06:51:52;101471.84;;;10.59;100.00
21111;BME280;10713;51.912;4.494;2024-02-14T06:54:17;101469.13;;;10.60;100.00
21111;BME280;10713;51.912;4.494;2024-02-14T06:56:44;101476.22;;;10.58;100.00
21111;BME280;10713;51.912;4.494;2024-02-14T06:59:10;101484.13;;;10.60;100.00
21111;BME280;10713;51.912;4.494;2024-02-14T07:01:35;101475.25;;;10.63;100.00
21111;BME280;10713;51.912;4.494;2024-02-14T07:04:01;101476.00;;;10.66;100.00
21111;BME280;10713;51.912;4.494;2024-02-14T07:06:26;101481.34;;;10.65;100.00
21111;BME280;10713;51.912;4.494;2024-02-14T07:08:52;101484.03;;;10.63;100.00
21111;BME280;10713;51.912;4.494;2024-02-14T07:11:18;101489.28;;;10.65;100.00
21111;BME280;10713;51.912;4.494;2024-02-14T07:13:43;101499.78;;;10.66;100.00
21111;BME280;10713;51.912;4.494;2024-02-14T07:16:09;101493.63;;;10.66;100.00
21111;BME280;10713;51.912;4.494;2024-02-14T07:18:34;101502.31;;;10.69;100.00
21111;BME280;10713;51.912;4.494;2024-02-14T07:21:00;101493.31;;;10.76;100.00
21111;BME280;10713;51.912;4.494;2024-02-14T07:23:26;101496.16;;;10.70;100.00
21111;BME280;10713;51.912;4.494;2024-02-14T07:25:52;101493.53;;;10.69;100.00
21111;BME280;10713;51.912;4.494;2024-02-14T07:28:18;101504.09;;;10.69;100.00
21111;BME280;10713;51.912;4.494;2024-02-14T07:30:43;101493.63;;;10.66;100.00
21111;BME280;10713;51.912;4.494;2024-02-14T07:33:09;101502.28;;;10.71;100.00
21111;BME280;10713;51.912;4.494;2024-02-14T07:35:36;101490.88;;;10.70;100.00
21111;BME280;10713;51.912;4.494;2024-02-14T07:38:02;101495.09;;;10.76;100.00
21111;BME280;10713;51.912;4.494;2024-02-14T07:40:27;101503.03;;;10.76;100.00
21111;BME280;10713;51.912;4.494;2024-02-14T07:42:56;101501.19;;;10.78;100.00
21111;BME280;10713;51.912;4.494;2024-02-14T07:45:21;101507.31;;;10.78;100.00
21111;BME280;10713;51.912;4.494;2024-02-14T07:47:49;101519.72;;;10.76;100.00
21111;BME280;10713;51.912;4.494;2024-02-14T07:50:15;101518.69;;;10.82;100.00
21111;BME280;10713;51.912;4.494;2024-02-14T07:52:42;101524.78;;;10.84;100.00
21111;BME280;10713;51.912;4.494;2024-02-14T07:55:08;101524.69;;;10.87;100.00
21111;BME280;10713;51.912;4.494;2024-02-14T07:57:35;101516.72;;;10.89;100.00
21111;BME280;10713;51.912;4.494;2024-02-14T08:00:01;101524.53;;;10.93;100.00
21111;BME280;10713;51.912;4.494;2024-02-14T08:02:26;101519.31;;;10.90;100.00
21111;BME280;10713;51.912;4.494;2024-02-14T08:04:52;101522.72;;;10.94;100.00
21111;BME280;10713;51.912;4.494;2024-02-14T08:07:18;101525.47;;;10.91;100.00
21111;BME280;10713;51.912;4.494;2024-02-14T08:09:43;101525.56;;;10.88;100.00
21111;BME280;10713;51.912;4.494;2024-02-14T08:12:09;101527.38;;;10.86;100.00
21111;BME280;10713;51.912;4.494;2024-02-14T08:14:34;101525.66;;;10.85;100.00
21111;BME280;10713;51.912;4.494;2024-02-14T08:17:00;101524.00;;;10.80;100.00
21111;BME280;10713;51.912;4.494;2024-02-14T08:19:25;101531.06;;;10.80;100.00
21111;BME280;10713;51.912;4.494;2024-02-14T08:21:50;101526.69;;;10.79;100.00
21111;BME280;10713;51.912;4.494;2024-02-14T08:24:16;101532.94;;;10.76;100.00
21111;BME280;10713;51.912;4.494;2024-02-14T08:26:42;101532.00;;;10.77;100.00
21111;BME280;10713;51.912;4.494;2024-02-14T08:29:08;101536.28;;;10.81;100.00
21111;BME280;10713;51.912;4.494;2024-02-14T08:31:36;101539.75;;;10.83;100.00
21111;BME280;10713;51.912;4.494;2024-02-14T08:34:01;101539.63;;;10.88;100.00
21111;BME280;10713;51.912;4.494;2024-02-14T08:36:27;101529.09;;;10.87;100.00
21111;BME280;10713;51.912;4.494;2024-02-14T08:38:52;101538.63;;;10.92;100.00
21111;BME280;10713;51.912;4.494;2024-02-14T08:41:17;101539.38;;;10.96;100.00
21111;BME280;10713;51.912;4.494;2024-02-14T08:43:43;101541.16;;;10.95;100.00
21111;BME280;10713;51.912;4.494;2024-02-14T08:46:10;101545.50;;;10.98;100.00
21111;BME280;10713;51.912;4.494;2024-02-14T08:48:36;101548.03;;;11.01;100.00
21111;BME280;10713;51.912;4.494;2024-02-14T08:51:05;101537.34;;;11.05;100.00
21111;BME280;10713;51.912;4.494;2024-02-14T08:53:31;101552.38;;;11.03;100.00
21111;BME280;10713;51.912;4.494;2024-02-14T08:55:57;101547.00;;;11.07;100.00
21111;BME280;10713;51.912;4.494;2024-02-14T08:58:22;101556.50;;;11.12;100.00
21111;BME280;10713;51.912;4.494;2024-02-14T09:00:49;101548.47;;;11.17;100.00
21111;BME280;10713;51.912;4.494;2024-02-14T09:03:14;101562.41;;;11.22;100.00
21111;BME280;10713;51.912;4.494;2024-02-14T09:05:40;101556.06;;;11.27;100.00
21111;BME280;10713;51.912;4.494;2024-02-14T09:08:06;101557.78;;;11.28;100.00
21111;BME280;10713;51.912;4.494;2024-02-14T09:10:31;101556.84;;;11.31;100.00
21111;BME280;10713;51.912;4.494;2024-02-14T09:12:57;101558.63;;;11.31;100.00
21111;BME280;10713;51.912;4.494;2024-02-14T09:15:22;101556.88;;;11.30;100.00
21111;BME280;10713;51.912;4.494;2024-02-14T09:17:47;101554.19;;;11.31;100.00
21111;BME280;10713;51.912;4.494;2024-02-14T09:20:13;101548.91;;;11.31;100.00
21111;BME280;10713;51.912;4.494;2024-02-14T09:22:39;101560.47;;;11.27;100.00
21111;BME280;10713;51.912;4.494;2024-02-14T09:25:07;101566.56;;;11.29;100.00
21111;BME280;10713;51.912;4.494;2024-02-14T09:27:35;101575.44;;;11.28;100.00
21111;BME280;10713;51.912;4.494;2024-02-14T09:30:01;101569.28;;;11.27;100.00
21111;BME280;10713;51.912;4.494;2024-02-14T09:32:29;101572.78;;;11.28;100.00
21111;BME280;10713;51.912;4.494;2024-02-14T09:34:54;101577.25;;;11.26;100.00
21111;BME280;10713;51.912;4.494;2024-02-14T09:37:20;101576.28;;;11.28;100.00
21111;BME280;10713;51.912;4.494;2024-02-14T09:39:45;101577.22;;;11.27;100.00
21111;BME280;10713;51.912;4.494;2024-02-14T09:42:13;101575.44;;;11.28;100.00
21111;BME280;10713;51.912;4.494;2024-02-14T09:44:41;101571.13;;;11.24;100.00
21111;BME280;10713;51.912;4.494;2024-02-14T09:47:07;101569.31;;;11.26;100.00
21111;BME280;10713;51.912;4.494;2024-02-14T09:49:35;101566.66;;;11.27;100.00
21111;BME280;10713;51.912;4.494;2024-02-14T09:52:02;101571.84;;;11.31;100.00
21111;BME280;10713;51.912;4.494;2024-02-14T09:54:29;101572.63;;;11.33;100.00
21111;BME280;10713;51.912;4.494;2024-02-14T09:56:57;101573.31;;;11.39;100.00
21111;BME280;10713;51.912;4.494;2024-02-14T09:59:23;101575.03;;;11.40;100.00
21111;BME280;10713;51.912;4.494;2024-02-14T10:01:49;101572.28;;;11.45;100.00
21111;BME280;10713;51.912;4.494;2024-02-14T10:04:16;101573.16;;;11.44;100.00
21111;BME280;10713;51.912;4.494;2024-02-14T10:06:44;101576.63;;;11.46;100.00
21111;BME280;10713;51.912;4.494;2024-02-14T10:09:09;101571.25;;;11.49;100.00
21111;BME280;10713;51.912;4.494;2024-02-14T10:11:35;101573.84;;;11.50;100.00
21111;BME280;10713;51.912;4.494;2024-02-14T10:14:01;101574.66;;;11.53;100.00
21111;BME280;10713;51.912;4.494;2024-02-14T10:16:29;101572.00;;;11.53;100.00
21111;BME280;10713;51.912;4.494;2024-02-14T10:18:54;101575.28;;;11.61;100.00
21111;BME280;10713;51.912;4.494;2024-02-14T10:21:21;101567.31;;;11.62;100.00
21111;BME280;10713;51.912;4.494;2024-02-14T10:23:47;101572.50;;;11.65;100.00
21111;BME280;10713;51.912;4.494;2024-02-14T10:26:13;101578.59;;;11.67;100.00
21111;BME280;10713;51.912;4.494;2024-02-14T10:28:42;101577.72;;;11.67;100.00
21111;BME280;10713;51.912;4.494;2024-02-14T10:31:10;101575.91;;;11.69;100.00
21111;BME280;10713;51.912;4.494;2024-02-14T10:33:35;101576.56;;;11.76;100.00
21111;BME280;10713;51.912;4.494;2024-02-14T10:36:01;101577.38;;;11.78;100.00
21111;BME280;10713;51.912;4.494;2024-02-14T10:38:31;101575.47;;;11.83;100.00
21111;BME280;10713;51.912;4.494;2024-02-14T10:40:59;101578.84;;;11.88;100.00
21111;BME280;10713;51.912;4.494;2024-02-14T10:43:25;101566.41;;;11.90;100.00
21111;BME280;10713;51.912;4.494;2024-02-14T10:45:52;101568.97;;;11.93;100.00
21111;BME280;10713;51.912;4.494;2024-02-14T10:48:22;101568.59;;;12.04;100.00
21111;BME280;10713;51.912;4.494;2024-02-14T10:50:52;101568.41;;;12.10;100.00
21111;BME280;10713;51.912;4.494;2024-02-14T10:53:18;101568.19;;;12.16;100.00
21111;BME280;10713;51.912;4.494;2024-02-14T10:55:47;101565.41;;;12.21;100.00
21111;BME280;10713;51.912;4.494;2024-02-14T10:58:14;101563.56;;;12.23;100.00
21111;BME280;10713;51.912;4.494;2024-02-14T11:00:41;101571.41;;;12.26;100.00
21111;BME280;10713;51.912;4.494;2024-02-14T11:03:07;101562.50;;;12.28;100.00
21111;BME280;10713;51.912;4.494;2024-02-14T11:05:46;101560.75;;;12.27;100.00
21111;BME280;10713;51.912;4.494;2024-02-14T11:08:23;101565.06;;;12.30;100.00
21111;BME280;10713;51.912;4.494;2024-02-14T11:10:58;101558.88;;;12.31;100.00
21111;BME280;10713;51.912;4.494;2024-02-14T11:13:30;101559.78;;;12.30;100.00
21111;BME280;10713;51.912;4.494;2024-02-14T11:15:57;101559.03;;;12.26;100.00
21111;BME280;10713;51.912;4.494;2024-02-14T11:18:26;101557.31;;;12.25;100.00
21111;BME280;10713;51.912;4.494;2024-02-14T11:20:52;101554.69;;;12.24;100.00
21111;BME280;10713;51.912;4.494;2024-02-14T11:23:21;101560.84;;;12.24;100.00
21111;BME280;10713;51.912;4.494;2024-02-14T11:25:47;101553.81;;;12.25;100.00
21111;BME280;10713;51.912;4.494;2024-02-14T11:30:40;101554.59;;;12.27;100.00
21111;BME280;10713;51.912;4.494;2024-02-14T11:33:26;101552.88;;;12.26;100.00
21111;BME280;10713;51.912;4.494;2024-02-14T11:35:53;101549.59;;;12.19;100.00
21111;BME280;10713;51.912;4.494;2024-02-14T11:38:20;101546.94;;;12.19;100.00
21111;BME280;10713;51.912;4.494;2024-02-14T11:40:46;101544.44;;;12.14;100.00
21111;BME280;10713;51.912;4.494;2024-02-14T11:45:42;101550.69;;;12.12;100.00
21111;BME280;10713;51.912;4.494;2024-02-14T11:48:17;101541.72;;;12.16;100.00
21111;BME280;10713;51.912;4.494;2024-02-14T11:50:44;101544.28;;;12.19;100.00
21111;BME280;10713;51.912;4.494;2024-02-14T11:53:14;101541.66;;;12.19;100.00
21111;BME280;10713;51.912;4.494;2024-02-14T11:55:43;101546.03;;;12.18;100.00
21111;BME280;10713;51.912;4.494;2024-02-14T11:58:09;101551.22;;;12.22;100.00
21111;BME280;10713;51.912;4.494;2024-02-14T12:00:39;101546.00;;;12.20;100.00
21111;BME280;10713;51.912;4.494;2024-02-14T12:03:10;101538.09;;;12.18;100.00
21111;BME280;10713;51.912;4.494;2024-02-14T12:05:37;101540.72;;;12.20;100.00
21111;BME280;10713;51.912;4.494;2024-02-14T12:08:04;101545.91;;;12.23;100.00
21111;BME280;10713;51.912;4.494;2024-02-14T12:10:32;101548.44;;;12.26;100.00
21111;BME280;10713;51.912;4.494;2024-02-14T12:12:57;101545.75;;;12.28;100.00
21111;BME280;10713;51.912;4.494;2024-02-14T12:15:26;101540.56;;;12.25;100.00
21111;BME280;10713;51.912;4.494;2024-02-14T12:17:51;101546.72;;;12.25;100.00
21111;BME280;10713;51.912;4.494;2024-02-14T12:20:21;101541.47;;;12.24;100.00
21111;BME280;10713;51.912;4.494;2024-02-14T12:22:50;101538.81;;;12.24;100.00
21111;BME280;10713;51.912;4.494;2024-02-14T12:25:15;101538.06;;;12.20;100.00
21111;BME280;10713;51.912;4.494;2024-02-14T12:27:41;101540.75;;;12.18;100.00
21111;BME280;10713;51.912;4.494;2024-02-14T12:30:06;101541.66;;;12.19;100.00
21111;BME280;10713;51.912;4.494;2024-02-14T12:32:32;101540.72;;;12.20;100.00
21111;BME280;10713;51.912;4.494;2024-02-14T12:34:58;101545.06;;;12.21;100.00
21111;BME280;10713;51.912;4.494;2024-02-14T12:37:24;101545.06;;;12.21;100.00
21111;BME280;10713;51.912;4.494;2024-02-14T12:39:50;101538.06;;;12.20;100.00
21111;BME280;10713;51.912;4.494;2024-02-14T12:42:15;101532.69;;;12.22;100.00